sensor_id;sensor_type;location;lat;lon;timestamp;pressure;altitude;pressure_sealevel;temperature;humidity
10712;BME280;5407;51.234;6.804;2023-09-19T00:00:56;100360.78;;;19.59;73.10
10712;BME280;5407;51.234;6.804;2023-09-19T00:03:23;100355.59;;;19.34;73.05
10712;BME280;5407;51.234;6.804;2023-09-19T00:05:52;100365.72;;;19.37;73.67
10712;BME280;5407;51.234;6.804;2023-09-19T00:08:21;100362.72;;;19.25;74.06
10712;BME280;5407;51.234;6.804;2023-09-19T00:10:50;100361.88;;;19.35;73.80
10712;BME280;5407;51.234;6.804;2023-09-19T00:13:19;100376.53;;;19.51;74.11
10712;BME280;5407;51.234;6.804;2023-09-19T00:15:47;100372.81;;;19.31;74.17
10712;BME280;5407;51.234;6.804;2023-09-19T00:18:15;100369.88;;;19.12;74.43
10712;BME280;5407;51.234;6.804;2023-09-19T00:20:44;100366.75;;;19.13;74.44
10712;BME280;5407;51.234;6.804;2023-09-19T00:23:14;100377.59;;;19.24;74.45
10712;BME280;5407;51.234;6.804;2023-09-19T00:25:42;100372.91;;;19.24;73.61
10712;BME280;5407;51.234;6.804;2023-09-19T00:28:08;100375.28;;;19.19;73.54
10712;BME280;5407;51.234;6.804;2023-09-19T00:30:35;100371.38;;;19.20;72.55
10712;BME280;5407;51.234;6.804;2023-09-19T00:33:04;100376.81;;;19.27;72.58
10712;BME280;5407;51.234;6.804;2023-09-19T00:35:33;100372.19;;;19.17;73.13
10712;BME280;5407;51.234;6.804;2023-09-19T00:38:02;100381.66;;;19.06;73.52
10712;BME280;5407;51.234;6.804;2023-09-19T00:40:31;100382.34;;;19.13;73.03
10712;BME280;5407;51.234;6.804;2023-09-19T00:42:58;100378.66;;;18.93;73.99
10712;BME280;5407;51.234;6.804;2023-09-19T00:45:27;100382.88;;;19.01;74.36
10712;BME280;5407;51.234;6.804;2023-09-19T00:47:54;100382.66;;;18.82;74.55
10712;BME280;5407;51.234;6.804;2023-09-19T00:50:24;100384.19;;;18.86;73.78
10712;BME280;5407;51.234;6.804;2023-09-19T00:52:55;100393.06;;;18.94;73.94
10712;BME280;5407;51.234;6.804;2023-09-19T00:55:23;100389.44;;;19.11;73.19
10712;BME280;5407;51.234;6.804;2023-09-19T00:57:52;100399.94;;;18.68;74.04
10712;BME280;5407;51.234;6.804;2023-09-19T01:00:22;100399.66;;;19.00;73.60
10712;BME280;5407;51.234;6.804;2023-09-19T01:02:50;100395.06;;;18.93;73.69
10712;BME280;5407;51.234;6.804;2023-09-19T01:05:17;100400.53;;;18.93;73.63
10712;BME280;5407;51.234;6.804;2023-09-19T01:07:45;100405.19;;;18.96;74.05
10712;BME280;5407;51.234;6.804;2023-09-19T01:10:16;100399.88;;;18.75;74.49
10712;BME280;5407;51.234;6.804;2023-09-19T01:12:54;100404.50;;;18.82;74.94
10712;BME280;5407;51.234;6.804;2023-09-19T01:15:40;100404.00;;;18.94;74.41
10712;BME280;5407;51.234;6.804;2023-09-19T01:18:27;100404.50;;;18.85;74.47
10712;BME280;5407;51.234;6.804;2023-09-19T01:21:02;100409.16;;;18.88;74.25
10712;BME280;5407;51.234;6.804;2023-09-19T01:23:42;100419.00;;;18.75;74.87
10712;BME280;5407;51.234;6.804;2023-09-19T01:26:30;100421.91;;;18.51;76.10
10712;BME280;5407;51.234;6.804;2023-09-19T01:29:23;100428.06;;;18.65;75.88
10712;BME280;5407;51.234;6.804;2023-09-19T01:31:59;100429.56;;;18.73;75.85
10712;BME280;5407;51.234;6.804;2023-09-19T01:34:43;100421.63;;;18.89;74.56
10712;BME280;5407;51.234;6.804;2023-09-19T01:37:12;100426.25;;;18.99;74.42
10712;BME280;5407;51.234;6.804;2023-09-19T01:39:39;100428.91;;;18.55;75.37
10712;BME280;5407;51.234;6.804;2023-09-19T01:42:12;100429.69;;;18.56;74.81
10712;BME280;5407;51.234;6.804;2023-09-19T01:45:03;100440.72;;;18.38;75.89
10712;BME280;5407;51.234;6.804;2023-09-19T01:47:48;100439.03;;;18.62;75.39
10712;BME280;5407;51.234;6.804;2023-09-19T01:50:22;100436.69;;;18.60;74.99
10712;BME280;5407;51.234;6.804;2023-09-19T01:52:57;100443.25;;;18.70;75.08
10712;BME280;5407;51.234;6.804;2023-09-19T01:55:28;100436.50;;;18.85;74.62
10712;BME280;5407;51.234;6.804;2023-09-19T01:58:01;100431.16;;;18.67;74.96
10712;BME280;5407;51.234;6.804;2023-09-19T02:00:32;100445.06;;;18.90;74.52
10712;BME280;5407;51.234;6.804;2023-09-19T02:03:03;100441.97;;;18.88;74.30
10712;BME280;5407;51.234;6.804;2023-09-19T02:05:30;100447.78;;;18.90;73.90
10712;BME280;5407;51.234;6.804;2023-09-19T02:07:58;100440.53;;;18.66;75.05
10712;BME280;5407;51.234;6.804;2023-09-19T02:10:26;100445.25;;;18.66;74.43
10712;BME280;5407;51.234;6.804;2023-09-19T02:12:55;100446.84;;;18.56;74.35
10712;BME280;5407;51.234;6.804;2023-09-19T02:15:22;100451.47;;;18.66;73.85
10712;BME280;5407;51.234;6.804;2023-09-19T02:17:49;100455.44;;;18.55;73.90
10712;BME280;5407;51.234;6.804;2023-09-19T02:20:17;100446.00;;;18.70;73.32
10712;BME280;5407;51.234;6.804;2023-09-19T02:22:45;100459.44;;;18.43;74.08
10712;BME280;5407;51.234;6.804;2023-09-19T02:25:15;100451.63;;;18.42;74.19
10712;BME280;5407;51.234;6.804;2023-09-19T02:27:44;100468.00;;;18.45;73.49
10712;BME280;5407;51.234;6.804;2023-09-19T02:30:13;100464.84;;;18.47;73.20
10712;BME280;5407;51.234;6.804;2023-09-19T02:32:41;100462.06;;;18.57;72.78
10712;BME280;5407;51.234;6.804;2023-09-19T02:35:08;100470.25;;;18.57;72.20
10712;BME280;5407;51.234;6.804;2023-09-19T02:37:38;100478.88;;;18.49;72.03
10712;BME280;5407;51.234;6.804;2023-09-19T02:40:06;100475.84;;;18.36;70.64
10712;BME280;5407;51.234;6.804;2023-09-19T02:42:44;100467.91;;;18.59;70.60
10712;BME280;5407;51.234;6.804;2023-09-19T02:45:15;100475.63;;;18.71;69.55
10712;BME280;5407;51.234;6.804;2023-09-19T02:47:43;100484.38;;;18.45;69.43
10712;BME280;5407;51.234;6.804;2023-09-19T02:50:11;100473.47;;;18.45;68.59
10712;BME280;5407;51.234;6.804;2023-09-19T02:52:41;100471.06;;;18.58;68.56
10712;BME280;5407;51.234;6.804;2023-09-19T02:55:10;100476.66;;;18.30;69.07
10712;BME280;5407;51.234;6.804;2023-09-19T02:57:37;100475.81;;;18.40;68.33
10712;BME280;5407;51.234;6.804;2023-09-19T03:00:07;100477.03;;;18.28;68.97
10712;BME280;5407;51.234;6.804;2023-09-19T03:02:36;100478.97;;;18.31;68.74
10712;BME280;5407;51.234;6.804;2023-09-19T03:05:05;100481.72;;;18.24;68.70
10712;BME280;5407;51.234;6.804;2023-09-19T03:07:33;100491.09;;;18.16;69.01
10712;BME280;5407;51.234;6.804;2023-09-19T03:10:01;100495.38;;;18.28;68.72
10712;BME280;5407;51.234;6.804;2023-09-19T03:12:29;100495.41;;;18.17;68.71
10712;BME280;5407;51.234;6.804;2023-09-19T03:14:56;100496.91;;;18.32;69.10
10712;BME280;5407;51.234;6.804;2023-09-19T03:17:24;100500.09;;;18.17;69.18
10712;BME280;5407;51.234;6.804;2023-09-19T03:19:52;100496.53;;;18.30;68.70
10712;BME280;5407;51.234;6.804;2023-09-19T03:22:19;100485.69;;;18.06;68.86
10712;BME280;5407;51.234;6.804;2023-09-19T03:24:46;100489.63;;;17.98;69.15
10712;BME280;5407;51.234;6.804;2023-09-19T03:27:15;100501.22;;;18.33;68.05
10712;BME280;5407;51.234;6.804;2023-09-19T03:29:42;100496.91;;;18.32;68.02
10712;BME280;5407;51.234;6.804;2023-09-19T03:32:09;100495.44;;;18.10;68.20
10712;BME280;5407;51.234;6.804;2023-09-19T03:34:37;100493.50;;;18.11;68.47
10712;BME280;5407;51.234;6.804;2023-09-19T03:37:08;100492.69;;;18.10;68.60
10712;BME280;5407;51.234;6.804;2023-09-19T03:39:36;100482.97;;;18.02;69.29
10712;BME280;5407;51.234;6.804;2023-09-19T03:42:04;100489.63;;;17.94;69.75
10712;BME280;5407;51.234;6.804;2023-09-19T03:44:35;100490.75;;;18.07;69.70
10712;BME280;5407;51.234;6.804;2023-09-19T03:47:02;100492.34;;;18.01;69.84
10712;BME280;5407;51.234;6.804;2023-09-19T03:49:31;100485.69;;;18.09;69.44
10712;BME280;5407;51.234;6.804;2023-09-19T03:51:59;100489.22;;;17.96;70.16
10712;BME280;5407;51.234;6.804;2023-09-19T03:54:26;100490.44;;;17.88;70.57
10712;BME280;5407;51.234;6.804;2023-09-19T03:56:53;100488.50;;;17.88;70.68
10712;BME280;5407;51.234;6.804;2023-09-19T03:59:20;100492.34;;;18.01;69.88
10712;BME280;5407;51.234;6.804;2023-09-19T04:01:49;100490.03;;;17.86;70.85
10712;BME280;5407;51.234;6.804;2023-09-19T04:04:16;100490.84;;;17.86;71.02
10712;BME280;5407;51.234;6.804;2023-09-19T04:06:44;100486.94;;;17.73;71.47
10712;BME280;5407;51.234;6.804;2023-09-19T04:09:11;100489.28;;;17.71;71.43
10712;BME280;5407;51.234;6.804;2023-09-19T04:11:38;100491.56;;;18.04;70.77
10712;BME280;5407;51.234;6.804;2023-09-19T04:14:05;100491.59;;;17.90;71.05
10712;BME280;5407;51.234;6.804;2023-09-19T04:16:32;100490.06;;;17.75;70.89
10712;BME280;5407;51.234;6.804;2023-09-19T04:19:00;100486.22;;;17.66;70.99
10712;BME280;5407;51.234;6.804;2023-09-19T04:21:28;100490.06;;;17.75;70.93
10712;BME280;5407;51.234;6.804;2023-09-19T04:23:55;100487.69;;;17.91;70.70
10712;BME280;5407;51.234;6.804;2023-09-19T04:26:22;100492.38;;;17.80;70.65
10712;BME280;5407;51.234;6.804;2023-09-19T04:28:50;100493.19;;;17.74;70.72
10712;BME280;5407;51.234;6.804;2023-09-19T04:31:17;100496.28;;;17.79;70.40
10712;BME280;5407;51.234;6.804;2023-09-19T04:33:45;100497.81;;;17.91;70.45
10712;BME280;5407;51.234;6.804;2023-09-19T04:36:14;100503.22;;;18.05;70.04
10712;BME280;5407;51.234;6.804;2023-09-19T04:38:41;100500.97;;;17.75;70.99
10712;BME280;5407;51.234;6.804;2023-09-19T04:41:08;100495.50;;;17.86;70.86
10712;BME280;5407;51.234;6.804;2023-09-19T04:43:34;100495.84;;;17.95;70.06
10712;BME280;5407;51.234;6.804;2023-09-19T04:46:01;100497.44;;;17.89;70.15
10712;BME280;5407;51.234;6.804;2023-09-19T04:48:31;100499.00;;;17.90;70.45
10712;BME280;5407;51.234;6.804;2023-09-19T04:51:00;100510.28;;;17.92;70.34
10712;BME280;5407;51.234;6.804;2023-09-19T04:53:28;100498.97;;;17.97;70.04
10712;BME280;5407;51.234;6.804;2023-09-19T04:55:55;100501.72;;;17.93;70.02
10712;BME280;5407;51.234;6.804;2023-09-19T04:58:22;100501.78;;;17.65;70.95
10712;BME280;5407;51.234;6.804;2023-09-19T05:00:49;100502.56;;;17.73;71.09
10712;BME280;5407;51.234;6.804;2023-09-19T05:03:17;100510.34;;;17.67;71.08
10712;BME280;5407;51.234;6.804;2023-09-19T05:05:46;100510.38;;;17.64;71.57
10712;BME280;5407;51.234;6.804;2023-09-19T05:08:13;100515.78;;;17.85;70.91
10712;BME280;5407;51.234;6.804;2023-09-19T05:10:41;100520.09;;;17.68;71.22
10712;BME280;5407;51.234;6.804;2023-09-19T05:13:08;100522.81;;;17.68;71.04
10712;BME280;5407;51.234;6.804;2023-09-19T05:15:35;100527.06;;;17.87;70.59
10712;BME280;5407;51.234;6.804;2023-09-19T05:18:03;100533.69;;;17.93;70.05
10712;BME280;5407;51.234;6.804;2023-09-19T05:20:31;100540.72;;;17.87;70.05
10712;BME280;5407;51.234;6.804;2023-09-19T05:23:01;100544.25;;;17.73;70.10
10712;BME280;5407;51.234;6.804;2023-09-19T05:25:28;100543.78;;;18.03;68.90
10712;BME280;5407;51.234;6.804;2023-09-19T05:27:58;100552.84;;;17.72;69.81
10712;BME280;5407;51.234;6.804;2023-09-19T05:30:26;100561.03;;;17.72;69.66
10712;BME280;5407;51.234;6.804;2023-09-19T05:32:54;100559.47;;;17.67;69.26
10712;BME280;5407;51.234;6.804;2023-09-19T05:35:22;100561.03;;;17.62;69.07
10712;BME280;5407;51.234;6.804;2023-09-19T05:37:50;100566.09;;;17.66;68.78
10712;BME280;5407;51.234;6.804;2023-09-19T05:40:18;100570.38;;;17.74;69.43
10712;BME280;5407;51.234;6.804;2023-09-19T05:42:45;100575.84;;;17.54;69.00
10712;BME280;5407;51.234;6.804;2023-09-19T05:45:13;100588.31;;;17.79;68.21
10712;BME280;5407;51.234;6.804;2023-09-19T05:47:44;100585.16;;;17.56;69.26
10712;BME280;5407;51.234;6.804;2023-09-19T05:50:12;100575.03;;;17.81;68.71
10712;BME280;5407;51.234;6.804;2023-09-19T05:52:40;100585.97;;;17.91;68.22
10712;BME280;5407;51.234;6.804;2023-09-19T05:55:10;100586.34;;;17.86;68.35
10712;BME280;5407;51.234;6.804;2023-09-19T05:57:37;100596.09;;;17.84;68.41
10712;BME280;5407;51.234;6.804;2023-09-19T06:00:06;100594.91;;;17.74;68.59
10712;BME280;5407;51.234;6.804;2023-09-19T06:02:39;100605.47;;;17.76;68.77
10712;BME280;5407;51.234;6.804;2023-09-19T06:05:06;100610.91;;;17.90;68.63
10712;BME280;5407;51.234;6.804;2023-09-19T06:07:35;100622.59;;;17.73;68.81
10712;BME280;5407;51.234;6.804;2023-09-19T06:10:03;100622.19;;;17.92;68.83
10712;BME280;5407;51.234;6.804;2023-09-19T06:12:32;100627.25;;;17.79;69.14
10712;BME280;5407;51.234;6.804;2023-09-19T06:15:03;100621.81;;;17.76;69.30
10712;BME280;5407;51.234;6.804;2023-09-19T06:17:34;100608.56;;;17.81;69.56
10712;BME280;5407;51.234;6.804;2023-09-19T06:20:06;100614.03;;;17.74;69.52
10712;BME280;5407;51.234;6.804;2023-09-19T06:22:38;100604.66;;;17.96;69.14
10712;BME280;5407;51.234;6.804;2023-09-19T06:25:07;100610.09;;;18.07;68.17
10712;BME280;5407;51.234;6.804;2023-09-19T06:27:37;100608.56;;;17.92;68.99
10712;BME280;5407;51.234;6.804;2023-09-19T06:30:06;100608.19;;;17.69;70.05
10712;BME280;5407;51.234;6.804;2023-09-19T06:32:34;100600.38;;;17.78;70.59
10712;BME280;5407;51.234;6.804;2023-09-19T06:35:01;100610.47;;;18.09;69.23
10712;BME280;5407;51.234;6.804;2023-09-19T06:37:30;100610.53;;;17.74;70.58
10712;BME280;5407;51.234;6.804;2023-09-19T06:39:57;100603.88;;;17.85;70.25
10712;BME280;5407;51.234;6.804;2023-09-19T06:42:24;100610.50;;;17.84;70.86
10712;BME280;5407;51.234;6.804;2023-09-19T06:44:51;100606.19;;;18.04;70.10
10712;BME280;5407;51.234;6.804;2023-09-19T06:47:18;100607.75;;;17.95;70.70
10712;BME280;5407;51.234;6.804;2023-09-19T06:49:46;100607.00;;;18.01;70.24
10712;BME280;5407;51.234;6.804;2023-09-19T06:52:13;100611.66;;;18.11;70.20
10712;BME280;5407;51.234;6.804;2023-09-19T06:54:42;100610.91;;;17.93;70.64
10712;BME280;5407;51.234;6.804;2023-09-19T06:57:09;100617.13;;;17.97;71.15
10712;BME280;5407;51.234;6.804;2023-09-19T06:59:36;100617.13;;;18.04;70.49
10712;BME280;5407;51.234;6.804;2023-09-19T07:02:04;100630.00;;;17.90;70.97
10712;BME280;5407;51.234;6.804;2023-09-19T07:04:32;100618.72;;;17.91;71.12
10712;BME280;5407;51.234;6.804;2023-09-19T07:06:59;100615.19;;;17.94;71.63
10712;BME280;5407;51.234;6.804;2023-09-19T07:09:26;100621.75;;;18.21;70.07
10712;BME280;5407;51.234;6.804;2023-09-19T07:11:55;100620.63;;;18.08;70.35
10712;BME280;5407;51.234;6.804;2023-09-19T07:14:22;100629.59;;;18.02;70.38
10712;BME280;5407;51.234;6.804;2023-09-19T07:16:49;100628.06;;;17.90;71.62
10712;BME280;5407;51.234;6.804;2023-09-19T07:19:17;100623.34;;;18.15;70.86
10712;BME280;5407;51.234;6.804;2023-09-19T07:21:44;100629.59;;;18.12;71.03
10712;BME280;5407;51.234;6.804;2023-09-19T07:24:13;100628.03;;;18.11;70.56
10712;BME280;5407;51.234;6.804;2023-09-19T07:26:40;100631.91;;;18.17;70.13
10712;BME280;5407;51.234;6.804;2023-09-19T07:29:08;100640.09;;;18.24;70.61
10712;BME280;5407;51.234;6.804;2023-09-19T07:31:35;100642.84;;;18.17;70.38
10712;BME280;5407;51.234;6.804;2023-09-19T07:34:02;100638.56;;;18.13;70.72
10712;BME280;5407;51.234;6.804;2023-09-19T07:36:30;100646.75;;;18.13;70.89
10712;BME280;5407;51.234;6.804;2023-09-19T07:38:58;100640.50;;;18.19;71.22
10712;BME280;5407;51.234;6.804;2023-09-19T07:41:25;100650.25;;;18.13;71.11
10712;BME280;5407;51.234;6.804;2023-09-19T07:43:52;100647.50;;;18.24;70.60
10712;BME280;5407;51.234;6.804;2023-09-19T07:46:21;100653.38;;;18.05;71.26
10712;BME280;5407;51.234;6.804;2023-09-19T07:48:50;100648.31;;;18.07;71.52
10712;BME280;5407;51.234;6.804;2023-09-19T07:51:17;100653.75;;;18.42;69.96
10712;BME280;5407;51.234;6.804;2023-09-19T07:53:44;100652.97;;;18.24;70.70
10712;BME280;5407;51.234;6.804;2023-09-19T07:56:11;100645.97;;;18.33;70.63
10712;BME280;5407;51.234;6.804;2023-09-19T07:58:39;100649.84;;;18.32;70.74
10712;BME280;5407;51.234;6.804;2023-09-19T08:01:10;100652.13;;;18.58;69.70
10712;BME280;5407;51.234;6.804;2023-09-19T08:03:39;100656.09;;;18.43;69.84
10712;BME280;5407;51.234;6.804;2023-09-19T08:06:08;100659.16;;;18.59;69.41
10712;BME280;5407;51.234;6.804;2023-09-19T08:08:36;100666.91;;;18.71;68.33
10712;BME280;5407;51.234;6.804;2023-09-19T08:11:04;100656.84;;;18.54;68.99
10712;BME280;5407;51.234;6.804;2023-09-19T08:13:36;100668.06;;;18.84;67.63
10712;BME280;5407;51.234;6.804;2023-09-19T08:16:08;100664.59;;;18.70;68.54
10712;BME280;5407;51.234;6.804;2023-09-19T08:18:35;100652.13;;;18.69;68.26
10712;BME280;5407;51.234;6.804;2023-09-19T08:21:04;100664.59;;;18.66;68.52
10712;BME280;5407;51.234;6.804;2023-09-19T08:23:33;100661.44;;;18.85;68.15
10712;BME280;5407;51.234;6.804;2023-09-19T08:26:00;100670.66;;;19.12;66.80
10712;BME280;5407;51.234;6.804;2023-09-19T08:28:32;100663.00;;;18.79;68.20
10712;BME280;5407;51.234;6.804;2023-09-19T08:31:01;100663.84;;;18.55;68.76
10712;BME280;5407;51.234;6.804;2023-09-19T08:33:31;100675.13;;;18.75;68.57
10712;BME280;5407;51.234;6.804;2023-09-19T08:35:58;100681.22;;;19.17;67.23
10712;BME280;5407;51.234;6.804;2023-09-19T08:38:26;100681.22;;;19.17;67.22
10712;BME280;5407;51.234;6.804;2023-09-19T08:40:57;100673.78;;;19.14;66.91
10712;BME280;5407;51.234;6.804;2023-09-19T08:43:25;100679.66;;;19.16;67.32
10712;BME280;5407;51.234;6.804;2023-09-19T08:45:54;100684.66;;;19.31;65.51
10712;BME280;5407;51.234;6.804;2023-09-19T08:48:26;100674.28;;;18.92;67.24
10712;BME280;5407;51.234;6.804;2023-09-19T08:50:56;100684.09;;;18.75;67.19
10712;BME280;5407;51.234;6.804;2023-09-19T08:53:32;100683.59;;;19.01;66.70
10712;BME280;5407;51.234;6.804;2023-09-19T08:56:03;100681.72;;;18.77;66.16
10712;BME280;5407;51.234;6.804;2023-09-19T08:58:39;100677.78;;;18.92;66.43
10712;BME280;5407;51.234;6.804;2023-09-19T09:01:07;100690.91;;;19.32;64.97
10712;BME280;5407;51.234;6.804;2023-09-19T09:03:37;100689.66;;;19.47;64.61
10712;BME280;5407;51.234;6.804;2023-09-19T09:06:09;100685.84;;;19.30;64.63
10712;BME280;5407;51.234;6.804;2023-09-19T09:08:40;100685.41;;;19.39;64.49
10712;BME280;5407;51.234;6.804;2023-09-19T09:11:07;100683.97;;;19.10;63.92
10712;BME280;5407;51.234;6.804;2023-09-19T09:13:35;100684.88;;;19.61;62.47
10712;BME280;5407;51.234;6.804;2023-09-19T09:16:03;100683.63;;;19.73;61.30
10712;BME280;5407;51.234;6.804;2023-09-19T09:18:30;100676.88;;;19.23;63.51
10712;BME280;5407;51.234;6.804;2023-09-19T09:20:57;100668.78;;;19.67;62.20
10712;BME280;5407;51.234;6.804;2023-09-19T09:23:26;100679.53;;;19.91;61.45
10712;BME280;5407;51.234;6.804;2023-09-19T09:25:59;100674.00;;;20.05;60.98
10712;BME280;5407;51.234;6.804;2023-09-19T09:28:29;100681.97;;;19.86;61.25
10712;BME280;5407;51.234;6.804;2023-09-19T09:30:56;100678.34;;;19.45;61.35
10712;BME280;5407;51.234;6.804;2023-09-19T09:33:24;100684.31;;;19.84;61.49
10712;BME280;5407;51.234;6.804;2023-09-19T09:35:52;100678.97;;;19.66;61.50
10712;BME280;5407;51.234;6.804;2023-09-19T09:38:23;100677.22;;;19.90;61.43
10712;BME280;5407;51.234;6.804;2023-09-19T09:40:53;100676.47;;;19.86;61.43
10712;BME280;5407;51.234;6.804;2023-09-19T09:43:32;100676.97;;;20.25;60.37
10712;BME280;5407;51.234;6.804;2023-09-19T09:46:21;100677.41;;;20.20;59.69
10712;BME280;5407;51.234;6.804;2023-09-19T09:49:05;100676.53;;;19.79;60.60
10712;BME280;5407;51.234;6.804;2023-09-19T09:51:42;100673.16;;;20.12;59.22
10712;BME280;5407;51.234;6.804;2023-09-19T09:54:14;100671.91;;;20.20;58.81
10712;BME280;5407;51.234;6.804;2023-09-19T09:56:52;100661.56;;;20.34;58.34
10712;BME280;5407;51.234;6.804;2023-09-19T09:59:21;100671.09;;;20.60;58.07
10712;BME280;5407;51.234;6.804;2023-09-19T10:01:49;100673.56;;;21.17;54.88
10712;BME280;5407;51.234;6.804;2023-09-19T10:04:27;100680.22;;;20.86;56.03
10712;BME280;5407;51.234;6.804;2023-09-19T10:06:57;100678.13;;;20.61;57.29
10712;BME280;5407;51.234;6.804;2023-09-19T10:09:30;100668.78;;;20.95;56.31
10712;BME280;5407;51.234;6.804;2023-09-19T10:12:14;100675.06;;;21.78;53.77
10712;BME280;5407;51.234;6.804;2023-09-19T10:14:44;100671.50;;;22.04;51.76
10712;BME280;5407;51.234;6.804;2023-09-19T10:17:13;100669.22;;;23.23;48.44
10712;BME280;5407;51.234;6.804;2023-09-19T10:19:46;100668.63;;;22.11;50.93
10712;BME280;5407;51.234;6.804;2023-09-19T10:22:17;100663.84;;;21.39;53.14
10712;BME280;5407;51.234;6.804;2023-09-19T10:24:48;100653.44;;;22.03;51.56
10712;BME280;5407;51.234;6.804;2023-09-19T10:27:18;100658.72;;;23.69;47.01
10712;BME280;5407;51.234;6.804;2023-09-19T10:29:49;100657.44;;;23.89;46.33
10712;BME280;5407;51.234;6.804;2023-09-19T10:32:17;100655.63;;;24.43;44.61
10712;BME280;5407;51.234;6.804;2023-09-19T10:34:46;100652.91;;;24.72;43.02
10712;BME280;5407;51.234;6.804;2023-09-19T10:37:16;100657.69;;;26.21;39.97
10712;BME280;5407;51.234;6.804;2023-09-19T10:39:46;100649.16;;;25.19;41.23
10712;BME280;5407;51.234;6.804;2023-09-19T10:42:18;100657.63;;;24.71;43.25
10712;BME280;5407;51.234;6.804;2023-09-19T10:44:47;100655.97;;;24.17;44.98
10712;BME280;5407;51.234;6.804;2023-09-19T10:47:20;100660.19;;;25.19;43.21
10712;BME280;5407;51.234;6.804;2023-09-19T10:49:50;100661.31;;;25.71;41.99
10712;BME280;5407;51.234;6.804;2023-09-19T10:52:19;100663.81;;;25.16;41.89
10712;BME280;5407;51.234;6.804;2023-09-19T10:54:50;100663.00;;;25.03;42.35
10712;BME280;5407;51.234;6.804;2023-09-19T10:57:21;100671.28;;;27.65;37.38
10712;BME280;5407;51.234;6.804;2023-09-19T11:00:03;100680.16;;;26.23;40.19
10712;BME280;5407;51.234;6.804;2023-09-19T11:03:18;100644.28;;;25.73;39.95
10712;BME280;5407;51.234;6.804;2023-09-19T11:06:05;100664.72;;;26.89;38.24
10712;BME280;5407;51.234;6.804;2023-09-19T11:08:58;100660.47;;;24.96;41.39
10712;BME280;5407;51.234;6.804;2023-09-19T11:11:40;100654.81;;;25.00;41.77
10712;BME280;5407;51.234;6.804;2023-09-19T11:14:41;100654.91;;;25.62;39.90
10712;BME280;5407;51.234;6.804;2023-09-19T11:17:31;100646.63;;;24.84;41.32
10712;BME280;5407;51.234;6.804;2023-09-19T11:20:22;100662.72;;;27.42;37.44
10712;BME280;5407;51.234;6.804;2023-09-19T11:23:19;100666.16;;;27.94;36.29
10712;BME280;5407;51.234;6.804;2023-09-19T11:25:49;100670.44;;;30.04;32.64
10712;BME280;5407;51.234;6.804;2023-09-19T11:28:34;100678.84;;;28.22;34.98
10712;BME280;5407;51.234;6.804;2023-09-19T11:34:45;100662.63;;;27.24;35.85
10712;BME280;5407;51.234;6.804;2023-09-19T11:40:29;100670.47;;;26.40;36.48
10712;BME280;5407;51.234;6.804;2023-09-19T11:42:56;100657.97;;;26.48;36.55
10712;BME280;5407;51.234;6.804;2023-09-19T11:48:31;100673.00;;;29.84;30.87
10712;BME280;5407;51.234;6.804;2023-09-19T11:51:00;100671.25;;;29.63;31.25
10712;BME280;5407;51.234;6.804;2023-09-19T11:53:33;100660.34;;;28.73;32.14
10712;BME280;5407;51.234;6.804;2023-09-19T11:56:06;100666.41;;;30.05;30.77
10712;BME280;5407;51.234;6.804;2023-09-19T11:58:37;100655.91;;;30.00;30.29
10712;BME280;5407;51.234;6.804;2023-09-19T12:01:05;100660.84;;;29.31;31.39
10712;BME280;5407;51.234;6.804;2023-09-19T12:03:42;100649.25;;;28.19;32.35
10712;BME280;5407;51.234;6.804;2023-09-19T12:06:14;100642.78;;;27.65;33.47
10712;BME280;5407;51.234;6.804;2023-09-19T12:08:42;100653.59;;;28.65;32.14
10712;BME280;5407;51.234;6.804;2023-09-19T12:11:14;100650.19;;;30.64;29.71
10712;BME280;5407;51.234;6.804;2023-09-19T12:13:43;100645.44;;;29.71;30.05
10712;BME280;5407;51.234;6.804;2023-09-19T12:16:12;100643.84;;;30.64;29.41
10712;BME280;5407;51.234;6.804;2023-09-19T12:18:40;100631.41;;;30.12;30.00
10712;BME280;5407;51.234;6.804;2023-09-19T12:21:21;100644.75;;;31.13;27.73
10712;BME280;5407;51.234;6.804;2023-09-19T12:24:03;100640.88;;;29.50;29.52
10712;BME280;5407;51.234;6.804;2023-09-19T12:26:39;100650.09;;;30.73;28.72
10712;BME280;5407;51.234;6.804;2023-09-19T12:29:14;100627.47;;;30.05;29.57
10712;BME280;5407;51.234;6.804;2023-09-19T12:31:50;100628.28;;;30.57;29.10
10712;BME280;5407;51.234;6.804;2023-09-19T12:34:20;100630.69;;;31.22;28.35
10712;BME280;5407;51.234;6.804;2023-09-19T12:36:47;100610.31;;;30.58;29.02
10712;BME280;5407;51.234;6.804;2023-09-19T12:39:23;100616.34;;;30.42;29.16
10712;BME280;5407;51.234;6.804;2023-09-19T12:41:52;100606.38;;;30.94;28.97
10712;BME280;5407;51.234;6.804;2023-09-19T12:44:20;100617.16;;;31.15;28.75
10712;BME280;5407;51.234;6.804;2023-09-19T12:46:50;100606.00;;;30.19;29.62
10712;BME280;5407;51.234;6.804;2023-09-19T12:49:18;100604.41;;;31.97;27.24
10712;BME280;5407;51.234;6.804;2023-09-19T12:51:45;100594.66;;;28.70;31.19
10712;BME280;5407;51.234;6.804;2023-09-19T12:54:13;100590.22;;;28.10;32.30
10712;BME280;5407;51.234;6.804;2023-09-19T12:56:42;100599.25;;;28.91;30.76
10712;BME280;5407;51.234;6.804;2023-09-19T12:59:12;100580.81;;;28.43;32.28
10712;BME280;5407;51.234;6.804;2023-09-19T13:01:40;100587.38;;;28.90;31.11
10712;BME280;5407;51.234;6.804;2023-09-19T13:04:11;100576.88;;;25.83;35.39
10712;BME280;5407;51.234;6.804;2023-09-19T13:06:40;100589.25;;;25.66;35.92
10712;BME280;5407;51.234;6.804;2023-09-19T13:09:10;100587.25;;;24.22;39.47
10712;BME280;5407;51.234;6.804;2023-09-19T13:11:38;100580.31;;;24.46;39.31
10712;BME280;5407;51.234;6.804;2023-09-19T13:14:19;100578.91;;;23.81;40.50
10712;BME280;5407;51.234;6.804;2023-09-19T13:16:54;100589.41;;;23.55;41.39
10712;BME280;5407;51.234;6.804;2023-09-19T13:19:35;100592.84;;;23.59;41.31
10712;BME280;5407;51.234;6.804;2023-09-19T13:22:03;100584.69;;;23.39;42.38
10712;BME280;5407;51.234;6.804;2023-09-19T13:24:30;100595.00;;;23.35;42.26
10712;BME280;5407;51.234;6.804;2023-09-19T13:26:58;100575.69;;;22.84;43.32